ROMMA est une association bénévole à but non lucratif. Votre soutien est indispensable : ADHERER à ROMMA ou FAIRE un DON

Taninges - (74, Haute-Savoie)

Vallée du Giffre (635 m)   Longitude: 06° 35' 38" E   Latitude: 46° 06' 21" N Station romma n°98
 

Détail journalier du     <<     >>

Température Precipitation Humidité Pression Vent Dir Rafale Dir. rafale Ensol.
Heure (°C) (mm) (%) (hPa) (km/h) (km/h) (min)
01:00 11.809210121SE5SSE0
02:00 11.9093101203SE0
03:00 11.4094101103SE0
04:00 11.4094101102SE0
05:00 11.1095101003SE0
06:00 10.209410101SO3SE0
07:00 10.009610101SSO5SSO30
08:00 12.409510101E6E45
09:00 14.508610092ONO5ONO25
10:00 16.807310094SO15SSO45
11:00 18.406610095SO13O35
12:00 18.806410088O19O50
13:00 19.8058100710ONO24O55
14:00 19.6055100710O21ONO20
15:00 19.405510068O18NO0
16:00 19.605810065O18OSO0
17:00 19.805710069O21O5
18:00 18.206310066O24ONO0
19:00 18.706810063NO10N0
20:00 17.906710062SE10SE5
21:00 16.706810062SSE18SSO0
22:00 15.407710061SSE6ENE0
23:00 14.708110061SSE5S0
minuit 14.108410061SSE3SSO0

Graphique du 27-05-2019

 

Serveur OMMA